createdAt,value
2018-06-20T00:00:40.180Z,20.81
2018-06-20T00:03:08.878Z,20.74
2018-06-20T00:05:37.661Z,20.75
2018-06-20T00:08:06.364Z,20.73
2018-06-20T00:10:35.118Z,20.70
2018-06-20T00:13:03.971Z,20.67
2018-06-20T00:15:32.688Z,20.63
2018-06-20T00:18:01.418Z,20.60
2018-06-20T00:20:30.139Z,20.51
2018-06-20T00:22:58.853Z,20.58
2018-06-20T00:25:27.754Z,20.52
2018-06-20T00:27:56.563Z,20.50
2018-06-20T00:30:25.322Z,20.49
2018-06-20T00:32:54.058Z,20.47
2018-06-20T00:35:22.809Z,20.46
2018-06-20T00:37:51.658Z,20.41
2018-06-20T00:40:20.492Z,20.40
2018-06-20T00:42:49.282Z,20.31
2018-06-20T00:45:17.971Z,20.32
2018-06-20T00:47:46.776Z,20.26
2018-06-20T00:50:15.569Z,20.18
2018-06-20T00:52:44.327Z,20.15
2018-06-20T00:55:13.111Z,20.07
2018-06-20T00:57:41.915Z,19.98
2018-06-20T01:00:10.812Z,19.97
2018-06-20T01:02:39.581Z,20.06
2018-06-20T01:14:08.161Z,19.92
2018-06-20T01:16:36.744Z,19.87
2018-06-20T01:19:05.454Z,19.82
2018-06-20T01:21:33.974Z,19.83
2018-06-20T01:24:02.422Z,19.78
2018-06-20T01:26:31.091Z,19.76
2018-06-20T01:28:59.562Z,19.78
2018-06-20T01:31:28.125Z,19.66
2018-06-20T01:33:57.136Z,19.55
2018-06-20T01:36:25.648Z,19.73
2018-06-20T01:38:54.218Z,19.75
2018-06-20T01:41:22.739Z,19.75
2018-06-20T01:43:51.198Z,19.60
2018-06-20T01:46:19.630Z,19.59
2018-06-20T01:48:48.659Z,19.64
2018-06-20T01:51:17.272Z,19.52
2018-06-20T01:53:45.604Z,19.66
2018-06-20T01:56:14.056Z,19.59
2018-06-20T01:58:42.522Z,19.54
2018-06-20T02:01:10.980Z,19.55
2018-06-20T02:03:39.523Z,19.48
2018-06-20T02:06:08.001Z,19.51
2018-06-20T02:08:36.608Z,19.57
2018-06-20T02:11:05.137Z,19.57
2018-06-20T02:13:33.669Z,19.61
2018-06-20T02:16:02.236Z,19.53
2018-06-20T02:18:30.628Z,19.51
2018-06-20T02:20:59.165Z,19.30
2018-06-20T02:23:27.763Z,19.35
2018-06-20T02:25:56.201Z,19.59
2018-06-20T02:28:24.727Z,19.53
2018-06-20T02:30:53.085Z,19.70
2018-06-20T02:33:21.534Z,19.78
2018-06-20T02:35:50.014Z,19.96
2018-06-20T02:38:18.605Z,19.93
2018-06-20T02:40:47.236Z,20.09
2018-06-20T02:43:15.784Z,19.96
2018-06-20T02:45:44.228Z,19.93
2018-06-20T02:48:12.703Z,19.95
2018-06-20T02:50:41.184Z,20.15
2018-06-20T02:53:09.710Z,20.09
2018-06-20T02:55:38.424Z,20.54
2018-06-20T02:58:06.954Z,20.96
2018-06-20T03:00:35.446Z,21.09
2018-06-20T03:03:03.846Z,21.13
2018-06-20T03:05:32.214Z,20.94
2018-06-20T03:08:00.631Z,20.66
2018-06-20T03:10:29.018Z,21.40
2018-06-20T03:12:57.651Z,21.62
2018-06-20T03:15:26.444Z,21.66
2018-06-20T03:17:55.268Z,21.49
2018-06-20T03:20:23.654Z,21.14
2018-06-20T03:22:52.075Z,21.01
2018-06-20T03:25:20.494Z,20.72
2018-06-20T03:27:48.949Z,20.63
2018-06-20T03:30:17.341Z,20.62
2018-06-20T03:32:45.730Z,20.73
2018-06-20T03:35:14.127Z,20.77
2018-06-20T03:37:42.511Z,20.87
2018-06-20T03:40:10.960Z,20.78
2018-06-20T03:42:39.400Z,20.82
2018-06-20T03:45:07.957Z,21.25
2018-06-20T03:47:36.536Z,21.30
2018-06-20T03:50:05.015Z,21.16
2018-06-20T03:52:33.466Z,21.09
2018-06-20T03:55:01.837Z,21.33
2018-06-20T03:57:30.331Z,21.14
2018-06-20T03:59:58.677Z,20.93
2018-06-20T04:02:27.090Z,21.00
2018-06-20T04:04:55.456Z,21.24
2018-06-20T04:07:23.976Z,21.24
2018-06-20T04:09:52.342Z,21.30
2018-06-20T04:12:20.794Z,21.12
2018-06-20T04:14:49.144Z,21.18
2018-06-20T04:17:17.573Z,21.31
2018-06-20T04:19:46.036Z,21.17
2018-06-20T04:22:14.488Z,21.41
2018-06-20T04:24:42.833Z,21.26
2018-06-20T04:27:11.313Z,21.46
2018-06-20T04:29:39.765Z,21.49
2018-06-20T04:32:08.198Z,21.52
2018-06-20T04:34:36.849Z,21.65
2018-06-20T04:37:05.199Z,21.59
2018-06-20T04:39:34.012Z,21.52
2018-06-20T04:42:02.757Z,21.65
2018-06-20T04:44:31.447Z,21.74
2018-06-20T04:46:59.839Z,22.04
2018-06-20T04:49:28.469Z,22.02
2018-06-20T04:51:56.964Z,22.06
2018-06-20T04:54:25.545Z,22.06
2018-06-20T04:56:53.976Z,22.20
2018-06-20T04:59:22.369Z,22.18
2018-06-20T05:01:50.758Z,22.36
2018-06-20T05:04:19.222Z,22.47
2018-06-20T05:06:47.578Z,22.53
2018-06-20T05:09:16.824Z,22.48
2018-06-20T05:11:45.293Z,22.91
2018-06-20T05:14:13.669Z,23.35
2018-06-20T05:16:41.970Z,23.60
2018-06-20T05:19:10.332Z,23.66
2018-06-20T05:21:38.733Z,23.93
2018-06-20T05:24:07.425Z,23.84
2018-06-20T05:26:35.826Z,23.68
2018-06-20T05:29:04.238Z,23.60
2018-06-20T05:31:32.601Z,23.67
2018-06-20T05:34:00.978Z,23.71
2018-06-20T05:36:29.281Z,23.68
2018-06-20T05:38:57.663Z,23.83
2018-06-20T05:41:25.967Z,24.12
2018-06-20T05:43:54.358Z,24.12
2018-06-20T05:46:22.828Z,24.41
2018-06-20T05:48:51.215Z,24.42
2018-06-20T05:51:19.585Z,24.40
2018-06-20T05:53:47.972Z,24.59
2018-06-20T05:56:16.493Z,24.16
2018-06-20T05:58:45.077Z,24.31
2018-06-20T06:01:19.945Z,24.56
2018-06-20T06:03:48.369Z,24.55
2018-06-20T06:06:17.434Z,24.77
2018-06-20T06:08:46.436Z,25.03
2018-06-20T06:11:14.788Z,25.08
2018-06-20T06:13:43.124Z,25.10
2018-06-20T06:16:11.691Z,24.76
2018-06-20T06:18:40.058Z,25.08
2018-06-20T06:21:08.718Z,25.09
2018-06-20T06:23:37.034Z,25.41
2018-06-20T06:26:05.516Z,24.92
2018-06-20T06:28:33.964Z,25.06
2018-06-20T06:31:02.340Z,24.73
2018-06-20T06:33:30.866Z,25.24
2018-06-20T06:35:59.208Z,25.46
2018-06-20T06:38:27.577Z,25.86
2018-06-20T06:40:56.085Z,25.87
2018-06-20T06:43:24.528Z,25.88
2018-06-20T06:45:52.971Z,25.41
2018-06-20T06:48:21.422Z,25.74
2018-06-20T06:50:49.836Z,26.05
2018-06-20T06:53:18.257Z,26.38
2018-06-20T06:55:46.603Z,26.41
2018-06-20T06:58:15.090Z,26.43
2018-06-20T07:00:43.678Z,26.45
2018-06-20T07:03:12.070Z,26.77
2018-06-20T07:05:40.454Z,26.68
2018-06-20T07:08:09.043Z,26.37
2018-06-20T07:10:37.421Z,26.63
2018-06-20T07:13:05.908Z,27.07
2018-06-20T07:15:34.441Z,27.15
2018-06-20T07:18:03.028Z,26.63
2018-06-20T07:20:31.465Z,26.93
2018-06-20T07:22:59.842Z,26.60
2018-06-20T07:25:28.243Z,26.63
2018-06-20T07:27:56.598Z,26.64
2018-06-20T07:30:25.005Z,27.59
2018-06-20T07:32:53.457Z,27.21
2018-06-20T07:35:21.888Z,27.54
2018-06-20T07:37:50.357Z,27.66
2018-06-20T07:40:18.881Z,27.71
2018-06-20T07:42:47.258Z,27.52
2018-06-20T07:45:15.715Z,26.98
2018-06-20T07:47:44.199Z,27.60
2018-06-20T07:50:12.563Z,27.83
2018-06-20T07:52:41.003Z,28.16
2018-06-20T07:55:09.413Z,27.91
2018-06-20T07:57:37.819Z,27.63
2018-06-20T08:00:11.532Z,27.64
2018-06-20T08:02:56.290Z,28.17
2018-06-20T08:05:30.051Z,28.18
2018-06-20T08:08:03.688Z,28.51
2018-06-20T08:10:37.539Z,28.80
2018-06-20T08:14:09.770Z,28.85
2018-06-20T08:16:43.350Z,29.33
2018-06-20T08:19:17.199Z,29.18
2018-06-20T08:21:45.564Z,29.31
2018-06-20T08:24:13.921Z,29.50
2018-06-20T08:26:42.269Z,29.23
2018-06-20T08:29:10.582Z,29.31
2018-06-20T08:31:39.002Z,29.16
2018-06-20T08:34:07.313Z,29.34
2018-06-20T08:36:35.698Z,29.63
2018-06-20T08:39:05.137Z,29.46
2018-06-20T08:41:33.596Z,29.65
2018-06-20T08:44:02.341Z,29.23
2018-06-20T08:46:30.663Z,29.50
2018-06-20T08:48:59.030Z,29.37
2018-06-20T08:51:27.361Z,28.98
2018-06-20T08:53:55.745Z,29.03
2018-06-20T08:56:24.249Z,29.44
2018-06-20T08:58:52.643Z,29.24
2018-06-20T09:01:21.013Z,29.73
2018-06-20T09:03:49.440Z,29.79
2018-06-20T09:06:22.970Z,29.66
2018-06-20T09:09:58.486Z,29.63
2018-06-20T09:12:32.267Z,29.77
2018-06-20T09:15:05.948Z,30.11
2018-06-20T09:17:39.413Z,29.80
2018-06-20T09:20:08.070Z,30.45
2018-06-20T09:22:36.479Z,30.31
2018-06-20T09:25:04.927Z,30.45
2018-06-20T09:27:33.319Z,30.69
2018-06-20T09:30:01.665Z,30.63
2018-06-20T09:32:30.005Z,30.95
2018-06-20T09:34:58.343Z,30.37
2018-06-20T09:37:26.719Z,30.86
2018-06-20T09:39:55.118Z,30.89
2018-06-20T09:42:23.423Z,31.04
2018-06-20T09:44:51.815Z,30.56
2018-06-20T09:47:20.342Z,30.91
2018-06-20T09:49:48.724Z,30.94
2018-06-20T09:52:17.096Z,31.15
2018-06-20T09:54:45.667Z,31.83
2018-06-20T09:57:14.147Z,31.70
2018-06-20T09:59:47.889Z,31.20
2018-06-20T10:02:21.701Z,30.96
2018-06-20T10:04:55.442Z,31.33
2018-06-20T10:08:27.955Z,31.69
2018-06-20T10:11:01.610Z,31.61
2018-06-20T10:13:35.301Z,31.70
2018-06-20T10:16:03.803Z,31.86
2018-06-20T10:18:32.386Z,32.03
2018-06-20T10:21:00.783Z,31.73
2018-06-20T10:23:29.149Z,31.07
2018-06-20T10:25:57.629Z,31.30
2018-06-20T10:28:26.039Z,31.75
2018-06-20T10:30:54.448Z,31.74
2018-06-20T10:33:22.935Z,31.45
2018-06-20T10:35:51.337Z,31.41
2018-06-20T10:38:19.739Z,31.79
2018-06-20T10:40:48.057Z,32.34
2018-06-20T10:43:16.602Z,32.61
2018-06-20T10:45:50.459Z,32.56
2018-06-20T10:48:18.858Z,31.45
2018-06-20T10:50:47.266Z,31.83
2018-06-20T10:53:15.623Z,32.70
2018-06-20T10:55:44.006Z,32.51
2018-06-20T10:58:17.575Z,32.39
2018-06-20T11:00:51.469Z,31.51
2018-06-20T11:03:25.249Z,32.19
2018-06-20T11:06:19.440Z,32.38
2018-06-20T11:08:54.565Z,32.81
2018-06-20T11:11:28.105Z,32.39
2018-06-20T11:13:56.545Z,32.78
2018-06-20T11:16:24.956Z,32.65
2018-06-20T11:18:55.088Z,32.67
2018-06-20T11:21:23.477Z,31.91
2018-06-20T11:23:51.889Z,32.68
2018-06-20T11:26:20.274Z,32.77
2018-06-20T11:28:48.591Z,32.52
2018-06-20T11:31:16.964Z,32.06
2018-06-20T11:33:45.390Z,32.44
2018-06-20T11:36:13.816Z,32.51
2018-06-20T11:38:42.194Z,32.83
2018-06-20T11:41:10.569Z,32.76
2018-06-20T11:43:39.010Z,33.13
2018-06-20T11:46:12.724Z,33.03
2018-06-20T11:48:41.228Z,33.49
2018-06-20T11:51:09.667Z,33.69
2018-06-20T11:53:38.085Z,32.70
2018-06-20T11:56:06.504Z,33.30
2018-06-20T11:58:40.207Z,34.31
2018-06-20T12:01:13.776Z,35.35
2018-06-20T12:03:47.578Z,36.19
2018-06-20T12:06:21.252Z,36.93
2018-06-20T12:08:55.062Z,37.76
2018-06-20T12:11:28.904Z,38.47
2018-06-20T12:14:02.696Z,38.37
2018-06-20T12:16:31.391Z,41.19
2018-06-20T12:19:05.074Z,42.01
2018-06-20T12:21:38.947Z,43.23
2018-06-20T12:24:12.490Z,43.13
2018-06-20T12:26:46.357Z,43.29
2018-06-20T12:29:19.955Z,44.17
2018-06-20T12:31:53.747Z,44.79
2018-06-20T12:34:27.352Z,44.40
2018-06-20T12:37:01.144Z,44.09
2018-06-20T12:39:28.661Z,45.55
2018-06-20T12:42:02.379Z,44.79
2018-06-20T12:44:36.103Z,45.56
2018-06-20T12:47:08.537Z,46.40
2018-06-20T12:49:39.253Z,46.33
2018-06-20T12:52:07.677Z,47.62
2018-06-20T12:54:36.232Z,45.37
2018-06-20T12:57:04.557Z,47.53
2018-06-20T12:59:32.984Z,45.76
2018-06-20T13:02:01.392Z,46.81
2018-06-20T13:04:29.792Z,45.94
2018-06-20T13:06:58.139Z,46.70
2018-06-20T13:09:26.545Z,46.99
2018-06-20T13:11:54.928Z,49.41
2018-06-20T13:14:23.282Z,48.51
2018-06-20T13:16:51.667Z,48.51
2018-06-20T13:19:20.145Z,49.04
2018-06-20T13:21:48.554Z,49.12
2018-06-20T13:24:16.960Z,48.33
2018-06-20T13:26:45.361Z,47.11
2018-06-20T13:29:13.818Z,47.13
2018-06-20T13:31:47.595Z,49.32
2018-06-20T13:34:21.333Z,49.10
2018-06-20T13:36:54.815Z,50.27
2018-06-20T13:39:28.561Z,49.93
2018-06-20T13:41:59.993Z,49.65
2018-06-20T13:44:29.174Z,51.47
2018-06-20T13:47:02.997Z,49.64
2018-06-20T13:49:31.413Z,52.62
2018-06-20T13:51:59.743Z,51.08
2018-06-20T13:54:28.064Z,52.46
2018-06-20T13:56:56.432Z,52.34
2018-06-20T13:59:24.979Z,49.87
2018-06-20T14:01:53.503Z,49.09
2018-06-20T14:04:21.913Z,49.45
2018-06-20T14:06:50.353Z,49.37
2018-06-20T14:09:18.829Z,50.26
2018-06-20T14:11:47.201Z,49.75
2018-06-20T14:14:15.556Z,48.83
2018-06-20T14:16:44.049Z,49.44
2018-06-20T14:19:12.377Z,48.69
2018-06-20T14:21:41.940Z,51.00
2018-06-20T14:24:11.412Z,49.73
2018-06-20T14:26:41.002Z,50.99
2018-06-20T14:29:10.319Z,51.20
2018-06-20T14:31:44.207Z,50.15
2018-06-20T14:34:17.876Z,49.59
2018-06-20T14:36:51.501Z,51.19
2018-06-20T14:39:25.258Z,49.92
2018-06-20T14:41:59.261Z,51.04
2018-06-20T14:44:27.785Z,49.52
2018-06-20T14:46:56.504Z,51.90
2018-06-20T14:49:24.967Z,52.69
2018-06-20T14:51:53.482Z,49.54
2018-06-20T14:54:21.905Z,49.75
2018-06-20T14:56:50.402Z,50.29
2018-06-20T14:59:18.908Z,50.43
2018-06-20T15:01:47.252Z,49.61
2018-06-20T15:04:20.723Z,50.32
2018-06-20T15:06:49.490Z,48.52
2018-06-20T15:09:18.119Z,49.70
2018-06-20T15:11:46.525Z,49.48
2018-06-20T15:14:14.931Z,50.32
2018-06-20T15:16:49.954Z,50.21
2018-06-20T15:19:18.392Z,49.16
2018-06-20T15:21:46.790Z,49.28
2018-06-20T15:24:15.340Z,49.61
2018-06-20T15:26:49.191Z,51.35
2018-06-20T15:29:22.833Z,50.01
2018-06-20T15:31:56.453Z,51.36
2018-06-20T15:34:30.909Z,49.07
2018-06-20T15:37:04.689Z,48.70
2018-06-20T15:39:33.152Z,47.40
2018-06-20T15:42:01.581Z,49.26
2018-06-20T15:44:30.733Z,50.56
2018-06-20T15:47:00.672Z,49.77
2018-06-20T15:49:29.008Z,50.35
2018-06-20T15:51:57.404Z,49.21
2018-06-20T15:54:25.973Z,48.75
2018-06-20T15:56:54.506Z,49.16
2018-06-20T15:59:23.082Z,49.04
2018-06-20T16:01:51.892Z,48.83
2018-06-20T16:04:22.369Z,47.44
2018-06-20T16:06:50.781Z,48.71
2018-06-20T16:09:24.390Z,49.47
2018-06-20T16:11:52.753Z,48.74
2018-06-20T16:14:21.289Z,47.89
2018-06-20T16:16:49.816Z,47.82
2018-06-20T16:19:23.497Z,47.38
2018-06-20T16:21:57.170Z,48.88
2018-06-20T16:24:30.908Z,49.72
2018-06-20T16:27:04.649Z,47.98
2018-06-20T16:29:38.457Z,47.70
2018-06-20T16:32:06.774Z,46.08
2018-06-20T16:34:35.275Z,45.95
2018-06-20T16:37:03.695Z,46.79
2018-06-20T16:39:32.210Z,47.79
2018-06-20T16:42:00.648Z,48.69
2018-06-20T16:44:29.608Z,48.83
2018-06-20T16:46:58.091Z,47.38
2018-06-20T16:49:26.456Z,48.00
2018-06-20T16:51:54.798Z,48.73
2018-06-20T16:54:23.168Z,48.98
2018-06-20T16:56:51.478Z,48.81
2018-06-20T16:59:20.044Z,50.37
2018-06-20T17:01:53.760Z,51.26
2018-06-20T17:04:22.232Z,48.64
2018-06-20T17:06:50.700Z,49.59
2018-06-20T17:09:19.099Z,48.80
2018-06-20T17:11:51.721Z,49.32
2018-06-20T17:14:25.348Z,48.90
2018-06-20T17:16:59.362Z,49.26
2018-06-20T17:19:33.172Z,47.88
2018-06-20T17:22:06.845Z,48.24
2018-06-20T17:24:40.659Z,48.30
2018-06-20T17:27:09.136Z,49.15
2018-06-20T17:29:37.481Z,48.16
2018-06-20T17:32:05.963Z,47.65
2018-06-20T17:34:34.542Z,49.02
2018-06-20T17:37:03.076Z,49.59
2018-06-20T17:39:31.511Z,49.35
2018-06-20T17:41:59.917Z,48.52
2018-06-20T17:44:28.309Z,49.56
2018-06-20T17:46:56.801Z,49.10
2018-06-20T17:49:28.361Z,48.34
2018-06-20T17:51:56.822Z,47.33
2018-06-20T17:54:25.323Z,48.27
2018-06-20T17:56:53.812Z,48.14
2018-06-20T17:59:22.652Z,46.91
2018-06-20T18:01:51.217Z,46.57
2018-06-20T18:04:24.702Z,47.24
2018-06-20T18:06:58.424Z,46.41
2018-06-20T18:09:32.274Z,44.15
2018-06-20T18:12:06.087Z,41.36
2018-06-20T18:14:39.699Z,39.57
2018-06-20T18:17:08.113Z,37.75
2018-06-20T18:19:36.598Z,36.75
2018-06-20T18:22:04.962Z,36.32
2018-06-20T18:24:33.332Z,35.62
2018-06-20T18:27:01.677Z,34.97
2018-06-20T18:29:30.102Z,34.50
2018-06-20T18:31:58.588Z,34.16
2018-06-20T18:34:27.088Z,33.36
2018-06-20T18:36:55.441Z,33.32
2018-06-20T18:39:24.053Z,33.31
2018-06-20T18:41:52.443Z,32.80
2018-06-20T18:44:20.810Z,32.68
2018-06-20T18:46:49.117Z,32.53
2018-06-20T18:49:18.042Z,32.23
2018-06-20T18:51:46.546Z,32.08
2018-06-20T18:54:15.021Z,32.06
2018-06-20T18:56:43.556Z,31.46
2018-06-20T18:59:17.185Z,31.47
2018-06-20T19:01:50.890Z,31.34
2018-06-20T19:04:24.758Z,31.22
2018-06-20T19:06:58.479Z,30.96
2018-06-20T19:09:27.001Z,31.05
2018-06-20T19:11:55.509Z,30.74
2018-06-20T19:14:24.079Z,30.55
2018-06-20T19:16:52.573Z,30.48
2018-06-20T19:19:22.143Z,30.27
2018-06-20T19:21:50.444Z,30.19
2018-06-20T19:24:20.269Z,29.86
2018-06-20T19:26:48.658Z,29.58
2018-06-20T19:29:17.148Z,29.40
2018-06-20T19:31:45.653Z,29.34
2018-06-20T19:34:14.097Z,29.40
2018-06-20T19:36:42.547Z,29.16
2018-06-20T19:39:16.312Z,29.04
2018-06-20T19:41:44.778Z,28.83
2018-06-20T19:44:18.539Z,28.59
2018-06-20T19:46:47.067Z,28.68
2018-06-20T19:49:15.504Z,28.57
2018-06-20T19:51:44.029Z,28.58
2018-06-20T19:54:12.529Z,28.45
2018-06-20T19:56:41.325Z,28.36
2018-06-20T19:59:09.769Z,28.26
2018-06-20T20:01:38.151Z,28.19
2018-06-20T20:04:06.914Z,28.14
2018-06-20T20:06:35.558Z,28.04
2018-06-20T20:09:05.444Z,27.99
2018-06-20T20:11:33.913Z,28.02
2018-06-20T20:14:02.328Z,27.98
2018-06-20T20:16:31.692Z,27.86
2018-06-20T20:19:00.140Z,27.81
2018-06-20T20:21:28.522Z,27.80
2018-06-20T20:23:56.882Z,27.74
2018-06-20T20:26:25.309Z,27.62
2018-06-20T20:28:53.718Z,27.50
2018-06-20T20:31:22.535Z,27.46
2018-06-20T20:33:51.843Z,27.58
2018-06-20T20:36:20.453Z,27.54
2018-06-20T20:38:49.384Z,27.49
2018-06-20T20:41:18.754Z,27.36
2018-06-20T20:43:47.204Z,27.26
2018-06-20T20:46:18.961Z,27.22
2018-06-20T20:48:47.484Z,27.26
2018-06-20T20:51:16.138Z,27.24
2018-06-20T20:53:44.569Z,27.19
2018-06-20T20:56:13.018Z,27.17
2018-06-20T20:58:41.402Z,27.11
2018-06-20T21:01:09.927Z,27.06
2018-06-20T21:03:38.468Z,27.12
2018-06-20T21:06:06.846Z,27.07
2018-06-20T21:08:35.246Z,26.99
2018-06-20T21:11:03.653Z,26.94
2018-06-20T21:13:32.114Z,26.94
2018-06-20T21:16:00.473Z,26.86
2018-06-20T21:18:28.908Z,26.80
2018-06-20T21:20:57.298Z,26.78
2018-06-20T21:23:25.739Z,26.74
2018-06-20T21:25:54.337Z,26.65
2018-06-20T21:28:23.110Z,26.48
2018-06-20T21:30:51.471Z,26.46
2018-06-20T21:33:19.979Z,26.44
2018-06-20T21:35:51.221Z,26.34
2018-06-20T21:38:20.469Z,26.19
2018-06-20T21:40:50.878Z,26.02
2018-06-20T21:43:19.325Z,25.85
2018-06-20T21:45:47.727Z,25.67
2018-06-20T21:48:20.131Z,25.53
2018-06-20T21:50:52.904Z,25.40
2018-06-20T21:53:21.827Z,25.21
2018-06-20T21:55:50.941Z,25.16
2018-06-20T21:58:19.485Z,24.90
2018-06-20T22:00:49.323Z,24.93
2018-06-20T22:03:17.885Z,24.88
2018-06-20T22:05:46.390Z,24.76
2018-06-20T22:08:14.884Z,24.72
2018-06-20T22:10:43.336Z,24.63
2018-06-20T22:13:11.731Z,24.76
2018-06-20T22:15:40.055Z,24.67
2018-06-20T22:18:08.502Z,24.57
2018-06-20T22:20:36.950Z,24.62
2018-06-20T22:23:05.306Z,24.60
2018-06-20T22:25:33.951Z,24.48
2018-06-20T22:28:02.408Z,24.44
2018-06-20T22:30:30.776Z,24.48
2018-06-20T22:32:59.195Z,24.48
2018-06-20T22:35:27.581Z,24.40
2018-06-20T22:37:56.053Z,24.30
2018-06-20T22:40:24.547Z,24.38
2018-06-20T22:42:53.024Z,24.27
2018-06-20T22:45:21.586Z,24.29
2018-06-20T22:47:50.129Z,24.34
2018-06-20T22:50:18.688Z,24.25
2018-06-20T22:52:47.343Z,24.19
2018-06-20T22:55:15.820Z,24.17
2018-06-20T22:57:44.507Z,24.15
2018-06-20T23:00:12.965Z,24.26
2018-06-20T23:02:41.451Z,24.30
2018-06-20T23:05:09.904Z,24.28
2018-06-20T23:13:44.396Z,24.18
2018-06-20T23:16:12.927Z,24.19
2018-06-20T23:18:43.820Z,23.92
2018-06-20T23:21:12.220Z,24.08
2018-06-20T23:23:40.735Z,24.03
2018-06-20T23:26:09.197Z,24.03
2018-06-20T23:28:37.692Z,24.07
2018-06-20T23:31:06.780Z,24.02
2018-06-20T23:33:35.238Z,23.72
2018-06-20T23:36:03.885Z,23.84
2018-06-20T23:38:32.262Z,23.66
2018-06-20T23:41:00.742Z,23.78
2018-06-20T23:43:29.240Z,23.85
2018-06-20T23:45:57.796Z,23.80
2018-06-20T23:48:26.269Z,23.76
2018-06-20T23:50:54.863Z,23.73
2018-06-20T23:53:23.355Z,23.63
2018-06-20T23:55:51.788Z,23.61
2018-06-20T23:58:20.325Z,23.40
